Time;durP1;ratioP1;P1;durP2;ratioP2;P2;SDS_P1;SDS_P2;PMS_P1;PMS_P2;Temp;Humidity;BMP_temperature;BMP_pressure;BME280_temperature;BME280_humidity;BME280_pressure;Samples;Min_cycle;Max_cycle;Signal;HPM_P1;HPM_P2
2022/12/04 00:00:09;;;;;;;26.15;13.20;;;0.90;99.90;;;;;;5054898;28;20079;-71
2022/12/04 00:02:35;;;;;;;23.25;11.55;;;1.00;99.90;;;;;;5071581;28;20051;-70
2022/12/04 00:05:02;;;;;;;25.80;14.18;;;1.00;99.90;;;;;;5070472;28;20040;-70
2022/12/04 00:07:28;;;;;;;28.75;14.38;;;1.00;99.90;;;;;;5050281;28;20048;-71
2022/12/04 00:09:53;;;;;;;24.83;13.77;;;1.00;99.90;;;;;;5034729;28;20037;-71
2022/12/04 00:12:19;;;;;;;25.17;13.43;;;1.00;99.90;;;;;;5055861;28;20469;-71
2022/12/04 00:14:45;;;;;;;23.30;13.40;;;1.00;99.90;;;;;;5071723;28;20043;-71
2022/12/04 00:17:11;;;;;;;20.60;11.32;;;1.00;99.90;;;;;;5054577;28;20384;-71
2022/12/04 00:19:36;;;;;;;22.85;12.88;;;1.00;99.90;;;;;;5034298;28;20047;-71
2022/12/04 00:22:02;;;;;;;26.03;13.20;;;1.00;99.90;;;;;;5058265;28;20037;-71
2022/12/04 00:24:27;;;;;;;22.35;12.23;;;1.00;99.90;;;;;;5070259;28;20761;-71
2022/12/04 00:26:53;;;;;;;24.38;13.27;;;1.00;99.90;;;;;;5072607;28;20041;-71
2022/12/04 00:29:19;;;;;;;20.88;10.95;;;1.00;99.90;;;;;;5046584;28;20219;-71
2022/12/04 00:31:45;;;;;;;26.35;13.68;;;1.00;99.90;;;;;;5056027;28;20056;-71
2022/12/04 00:34:10;;;;;;;25.02;12.65;;;0.90;99.90;;;;;;5069823;28;20041;-71
2022/12/04 00:36:36;;;;;;;23.92;13.32;;;1.00;99.90;;;;;;5051298;28;20044;-71
2022/12/04 00:39:03;;;;;;;26.17;13.13;;;0.90;99.90;;;;;;5056141;28;20051;-71
2022/12/04 00:41:31;;;;;;;21.60;12.02;;;0.90;99.90;;;;;;5060103;28;20036;-71
2022/12/04 00:43:57;;;;;;;21.70;11.85;;;0.90;99.90;;;;;;5050700;28;20047;-72
2022/12/04 00:46:23;;;;;;;28.13;14.60;;;0.90;99.90;;;;;;5054316;28;20087;-72
2022/12/04 00:48:51;;;;;;;23.70;12.98;;;0.90;99.90;;;;;;5057275;28;20397;-72
2022/12/04 00:51:22;;;;;;;24.38;13.30;;;0.90;99.90;;;;;;5034184;28;20504;-72
2022/12/04 00:53:53;;;;;;;26.98;13.70;;;0.90;99.90;;;;;;5050701;28;20048;-71
2022/12/04 00:56:30;;;;;;;23.58;12.65;;;0.80;99.90;;;;;;5050572;28;20079;-72
2022/12/04 00:59:00;;;;;;;25.40;14.25;;;0.80;99.90;;;;;;5045938;28;20064;-72
2022/12/04 01:01:32;;;;;;;26.08;13.48;;;0.80;99.90;;;;;;5037851;28;20036;-72
2022/12/04 01:04:04;;;;;;;26.13;13.95;;;0.70;99.90;;;;;;5053136;28;20040;-72
2022/12/04 01:06:50;;;;;;;23.48;13.38;;;0.70;99.90;;;;;;5054576;28;20075;-72
2022/12/04 01:09:17;;;;;;;31.38;15.98;;;0.70;99.90;;;;;;5033015;28;20068;-72
2022/12/04 01:11:43;;;;;;;31.52;16.02;;;0.60;99.90;;;;;;5050185;28;20377;-72
2022/12/04 01:14:09;;;;;;;30.38;15.88;;;0.60;99.90;;;;;;5033771;28;20036;-72
2022/12/04 01:16:37;;;;;;;29.35;15.40;;;0.50;99.90;;;;;;5057281;28;20450;-72
2022/12/04 01:19:05;;;;;;;30.13;15.45;;;0.50;99.90;;;;;;5038898;28;20771;-72
2022/12/04 01:21:30;;;;;;;28.15;15.43;;;0.50;99.90;;;;;;5063568;28;20183;-71
2022/12/04 01:23:57;;;;;;;27.52;14.90;;;0.40;99.90;;;;;;5053659;28;20198;-72
2022/12/04 01:26:23;;;;;;;25.67;14.05;;;0.40;99.90;;;;;;5069811;28;20131;-72
2022/12/04 01:28:49;;;;;;;25.52;13.35;;;0.40;99.90;;;;;;5057392;28;20048;-72
2022/12/04 01:31:17;;;;;;;31.02;15.52;;;0.30;99.90;;;;;;5049751;28;20037;-72
2022/12/04 01:33:43;;;;;;;28.75;14.35;;;0.30;99.90;;;;;;5063364;28;20052;-72
2022/12/04 01:36:16;;;;;;;30.45;14.85;;;0.20;99.90;;;;;;5052929;28;20468;-72
2022/12/04 01:38:42;;;;;;;24.90;14.27;;;0.30;99.90;;;;;;5057096;28;20128;-74
2022/12/04 01:41:09;;;;;;;31.05;16.63;;;0.30;99.90;;;;;;5034184;28;20056;-75
2022/12/04 01:43:36;;;;;;;30.08;16.00;;;0.30;99.90;;;;;;5051147;28;20376;-75
2022/12/04 01:46:03;;;;;;;30.95;16.13;;;0.30;99.90;;;;;;5060711;28;20048;-74
2022/12/04 01:48:33;;;;;;;28.52;14.50;;;0.30;99.90;;;;;;5061634;28;20044;-75
2022/12/04 01:51:27;;;;;;;25.45;13.73;;;0.30;99.90;;;;;;5049279;28;20113;-74
2022/12/04 01:54:03;;;;;;;28.52;14.95;;;0.40;99.90;;;;;;5049936;28;20044;-73
2022/12/04 01:56:44;;;;;;;31.35;15.48;;;0.40;99.90;;;;;;5049994;28;20037;-74
2022/12/04 01:59:14;;;;;;;27.48;14.15;;;0.40;99.90;;;;;;5050811;28;20049;-74
2022/12/04 02:01:48;;;;;;;27.15;14.68;;;0.40;99.90;;;;;;5057711;28;20048;-74
2022/12/04 02:04:14;;;;;;;33.95;16.50;;;0.40;99.90;;;;;;5033044;28;20040;-74
2022/12/04 02:06:40;;;;;;;32.33;16.20;;;0.40;99.90;;;;;;5049609;28;20037;-74
2022/12/04 02:09:06;;;;;;;31.15;16.52;;;0.40;99.90;;;;;;5049239;28;20461;-74
2022/12/04 02:11:45;;;;;;;30.88;16.55;;;0.50;99.90;;;;;;5049620;28;20400;-74
2022/12/04 02:14:41;;;;;;;31.67;16.08;;;0.40;99.90;;;;;;5050101;28;20130;-74
2022/12/04 02:17:31;;;;;;;29.33;16.00;;;0.50;99.90;;;;;;5060863;28;20123;-74
2022/12/04 02:20:04;;;;;;;31.60;16.10;;;0.40;99.90;;;;;;5050220;28;20064;-74
2022/12/04 02:23:07;;;;;;;31.90;16.40;;;0.40;99.90;;;;;;5069255;28;20136;-74
2022/12/04 02:25:47;;;;;;;31.48;16.52;;;0.40;99.90;;;;;;5064533;28;20048;-74
2022/12/04 02:28:48;;;;;;;29.73;15.77;;;0.40;99.90;;;;;;5056265;28;20037;-75
2022/12/04 02:31:22;;;;;;;31.83;15.95;;;0.50;99.90;;;;;;5066585;28;20158;-74
2022/12/04 02:33:58;;;;;;;31.98;17.52;;;0.40;99.90;;;;;;5038317;28;20049;-74
2022/12/04 02:36:29;;;;;;;28.30;15.95;;;0.40;99.90;;;;;;5032631;28;20056;-74
2022/12/04 02:39:03;;;;;;;36.47;19.00;;;0.40;99.90;;;;;;5048534;28;20032;-74
2022/12/04 02:41:42;;;;;;;32.17;17.23;;;0.40;99.90;;;;;;5049606;28;20429;-74
2022/12/04 02:44:14;;;;;;;32.47;16.90;;;0.40;99.90;;;;;;5049366;28;20450;-74
2022/12/04 02:46:43;;;;;;;30.25;16.55;;;0.40;99.90;;;;;;5051248;28;20048;-74
2022/12/04 02:49:20;;;;;;;29.25;16.05;;;0.40;99.90;;;;;;5049654;28;20053;-74
2022/12/04 02:51:48;;;;;;;29.90;14.80;;;0.40;99.90;;;;;;5049505;28;20396;-74
2022/12/04 02:54:33;;;;;;;30.38;16.33;;;0.40;99.90;;;;;;5049833;28;20059;-74
2022/12/04 02:57:01;;;;;;;36.97;18.85;;;0.40;99.90;;;;;;5049079;28;20408;-74
2022/12/04 02:59:38;;;;;;;34.10;18.67;;;0.40;99.90;;;;;;5032765;28;20396;-74
2022/12/04 03:02:19;;;;;;;37.40;19.92;;;0.40;99.90;;;;;;5039757;28;20045;-74
2022/12/04 03:04:49;;;;;;;34.60;18.73;;;0.30;99.90;;;;;;5048853;28;20040;-74
2022/12/04 03:07:29;;;;;;;33.53;17.13;;;0.30;99.90;;;;;;5049554;28;20095;-74
2022/12/04 03:10:18;;;;;;;28.77;14.73;;;0.30;99.90;;;;;;5051902;28;20433;-74
2022/12/04 03:12:53;;;;;;;29.40;15.52;;;0.30;99.90;;;;;;5044534;28;20070;-74
2022/12/04 03:15:45;;;;;;;37.20;19.65;;;0.30;99.90;;;;;;5068689;28;20045;-74
2022/12/04 03:18:19;;;;;;;41.38;20.75;;;0.30;99.90;;;;;;5058935;28;20073;-74
2022/12/04 03:20:48;;;;;;;38.00;20.70;;;0.30;99.90;;;;;;5032815;28;20447;-74
2022/12/04 03:23:19;;;;;;;42.80;21.90;;;0.30;99.90;;;;;;5052070;28;20048;-74
2022/12/04 03:26:02;;;;;;;41.58;21.58;;;0.30;99.90;;;;;;5033796;28;20099;-74
2022/12/04 03:28:49;;;;;;;40.50;21.98;;;0.30;99.90;;;;;;5061948;28;20055;-74
2022/12/04 03:31:20;;;;;;;37.78;20.25;;;0.30;99.90;;;;;;5052592;28;20039;-73
2022/12/04 03:33:47;;;;;;;43.30;22.73;;;0.20;99.90;;;;;;5036358;28;20077;-74
2022/12/04 03:36:24;;;;;;;38.25;20.40;;;0.30;99.90;;;;;;5051731;28;20120;-74
2022/12/04 03:38:59;;;;;;;35.53;18.15;;;0.30;99.90;;;;;;5045413;28;20095;-74
2022/12/04 03:41:47;;;;;;;37.88;20.40;;;0.30;99.90;;;;;;5066524;28;20514;-74
2022/12/04 03:44:22;;;;;;;41.80;21.38;;;0.30;99.90;;;;;;5052227;28;20045;-74
2022/12/04 03:46:57;;;;;;;38.13;20.50;;;0.30;99.90;;;;;;5052409;28;20059;-74
2022/12/04 03:49:35;;;;;;;36.58;19.63;;;0.30;99.90;;;;;;5046595;28;20135;-75
2022/12/04 03:52:23;;;;;;;36.97;20.35;;;0.30;99.90;;;;;;5056530;28;20048;-74
2022/12/04 03:54:56;;;;;;;39.50;19.95;;;0.20;99.90;;;;;;5070024;28;20051;-74
2022/12/04 03:57:33;;;;;;;35.58;18.73;;;0.20;99.90;;;;;;5051902;28;20037;-74
2022/12/04 04:00:10;;;;;;;34.15;18.95;;;0.30;99.90;;;;;;5051759;28;20056;-74
2022/12/04 04:02:40;;;;;;;;;;;0.30;99.90;;;;;;5056971;28;20076;-74
2022/12/04 04:05:08;;;;;;;38.40;20.60;;;0.20;99.90;;;;;;5055478;28;20398;-74
2022/12/04 04:07:42;;;;;;;35.95;18.40;;;0.20;99.90;;;;;;5070594;28;20045;-74
2022/12/04 04:10:28;;;;;;;39.38;19.63;;;0.30;99.90;;;;;;5051829;28;20048;-74
2022/12/04 04:24:28;;;;;;;30.83;16.65;;;0.20;99.90;;;;;;5052097;28;20072;-74
2022/12/04 04:26:56;;;;;;;34.80;19.58;;;0.20;99.90;;;;;;5051208;28;20403;-74
2022/12/04 04:29:22;;;;;;;31.77;16.90;;;0.20;99.90;;;;;;5056908;28;20048;-74
2022/12/04 04:32:02;;;;;;;39.10;20.55;;;0.20;99.90;;;;;;5053778;28;20040;-74
2022/12/04 04:34:55;;;;;;;39.33;22.02;;;0.20;99.90;;;;;;5063678;28;20093;-73
2022/12/04 04:37:33;;;;;;;45.97;22.77;;;0.20;99.90;;;;;;5067753;28;20053;-73
2022/12/04 04:40:12;;;;;;;35.95;19.52;;;0.20;99.90;;;;;;5068506;28;20070;-73
2022/12/04 04:42:53;;;;;;;36.67;19.10;;;0.20;99.90;;;;;;5070786;28;20511;-73
2022/12/04 04:45:54;;;;;;;41.97;21.02;;;0.20;99.90;;;;;;5058123;28;20040;-73
2022/12/04 04:48:26;;;;;;;39.92;21.42;;;0.20;99.90;;;;;;5046127;28;20492;-73
2022/12/04 04:50:52;;;;;;;43.08;22.73;;;0.20;99.90;;;;;;5062325;28;20079;-73
2022/12/04 04:53:20;;;;;;;;;;;0.10;99.90;;;;;;5072566;28;20395;-73
2022/12/04 04:55:47;;;;;;;40.90;21.33;;;0.20;99.90;;;;;;5071138;28;19967;-73
2022/12/04 04:58:16;;;;;;;39.40;21.42;;;0.20;99.90;;;;;;5054401;28;20120;-74
2022/12/04 05:01:06;;;;;;;44.92;23.40;;;0.20;99.90;;;;;;5051092;28;20552;-74
2022/12/04 05:03:32;;;;;;;43.30;22.73;;;0.10;99.90;;;;;;5067792;28;20138;-73
2022/12/04 05:05:58;;;;;;;34.38;18.45;;;0.10;99.90;;;;;;5072249;28;20350;-73
2022/12/04 05:08:24;;;;;;;32.92;17.40;;;0.20;99.90;;;;;;5072072;28;20530;-73
2022/12/04 05:10:50;;;;;;;31.52;17.13;;;0.20;99.90;;;;;;5051934;28;20082;-74
2022/12/04 05:13:16;;;;;;;37.13;20.08;;;0.20;99.90;;;;;;5051716;28;20445;-73
2022/12/04 05:15:42;;;;;;;35.92;19.63;;;0.20;99.90;;;;;;5069937;28;20048;-74
2022/12/04 05:18:08;;;;;;;35.20;18.83;;;0.20;99.90;;;;;;5033104;28;20037;-73
2022/12/04 05:20:38;;;;;;;33.42;18.40;;;0.20;99.90;;;;;;5049398;28;20079;-74
2022/12/04 05:23:03;;;;;;;35.80;18.90;;;0.20;99.90;;;;;;5050305;28;20037;-74
2022/12/04 05:25:29;;;;;;;33.80;18.88;;;0.20;99.90;;;;;;5049977;28;20595;-73
2022/12/04 05:27:55;;;;;;;27.20;14.93;;;0.20;99.90;;;;;;5061520;28;20094;-73
2022/12/04 05:30:20;;;;;;;36.50;20.30;;;0.20;99.90;;;;;;5046714;28;20114;-73
2022/12/04 05:32:46;;;;;;;38.97;20.70;;;0.20;99.90;;;;;;5033471;28;20041;-73
2022/12/04 05:35:12;;;;;;;39.07;20.33;;;0.20;99.90;;;;;;5033328;28;20685;-73
2022/12/04 05:37:39;;;;;;;38.67;21.30;;;0.20;99.90;;;;;;5033259;28;20303;-74
2022/12/04 05:40:05;;;;;;;38.80;21.08;;;0.20;99.90;;;;;;5049999;28;20045;-74
2022/12/04 05:42:31;;;;;;;37.33;21.05;;;0.20;99.90;;;;;;5033438;28;20447;-74
2022/12/04 05:44:57;;;;;;;39.58;21.98;;;0.30;99.90;;;;;;5049923;28;20041;-74
2022/12/04 05:47:23;;;;;;;39.65;20.83;;;0.30;99.90;;;;;;5050400;28;20110;-73
2022/12/04 05:49:48;;;;;;;37.75;20.08;;;0.30;99.90;;;;;;5048762;28;20083;-73
2022/12/04 05:52:14;;;;;;;35.92;19.30;;;0.30;99.90;;;;;;5033343;28;20437;-74
2022/12/04 05:54:40;;;;;;;36.30;20.23;;;0.30;99.90;;;;;;5032973;28;20484;-73
2022/12/04 05:57:06;;;;;;;36.33;18.98;;;0.30;99.90;;;;;;5016895;28;20367;-74
2022/12/04 05:59:32;;;;;;;40.10;21.75;;;0.40;99.90;;;;;;5065133;28;20101;-73
2022/12/04 06:01:57;;;;;;;40.28;21.38;;;0.40;99.90;;;;;;5049680;28;20053;-73
2022/12/04 06:04:23;;;;;;;42.00;21.47;;;0.40;99.90;;;;;;5050443;28;20048;-74
2022/12/04 06:06:49;;;;;;;40.67;22.38;;;0.40;99.90;;;;;;5050389;28;20306;-73
2022/12/04 06:09:14;;;;;;;39.40;21.08;;;0.40;99.90;;;;;;5049010;28;20036;-73
2022/12/04 06:11:41;;;;;;;38.45;19.65;;;0.40;99.90;;;;;;5037962;28;20123;-74
2022/12/04 06:14:09;;;;;;;41.63;21.67;;;0.40;99.90;;;;;;5065496;28;20040;-74
2022/12/04 06:16:38;;;;;;;36.67;20.13;;;0.40;99.90;;;;;;5048290;28;20057;-74
2022/12/04 06:19:06;;;;;;;37.58;21.55;;;0.40;99.90;;;;;;5059050;28;20032;-73
2022/12/04 06:21:34;;;;;;;35.88;19.35;;;0.40;99.90;;;;;;5047436;28;20052;-73
2022/12/04 06:24:00;;;;;;;37.17;20.30;;;0.50;99.90;;;;;;5048890;28;20094;-73
2022/12/04 06:26:26;;;;;;;37.88;20.25;;;0.50;99.90;;;;;;5049368;28;20041;-73
2022/12/04 06:28:53;;;;;;;38.67;20.67;;;0.50;99.90;;;;;;5036571;28;20056;-73
2022/12/04 06:31:19;;;;;;;36.97;20.42;;;0.50;99.90;;;;;;5050025;28;20052;-74
2022/12/04 06:33:45;;;;;;;39.88;21.98;;;0.50;99.90;;;;;;5049102;28;20067;-73
2022/12/04 06:36:13;;;;;;;40.13;20.70;;;0.50;99.90;;;;;;5051928;28;20040;-73
2022/12/04 06:38:40;;;;;;;40.25;21.75;;;0.50;99.90;;;;;;5064580;28;20495;-73
2022/12/04 06:41:08;;;;;;;40.17;21.45;;;0.50;99.90;;;;;;5031612;28;20041;-73
2022/12/04 06:43:34;;;;;;;39.05;21.65;;;0.60;99.90;;;;;;5064492;28;20044;-73
2022/12/04 06:46:09;;;;;;;38.85;21.58;;;0.60;99.90;;;;;;5049352;28;20143;-73
2022/12/04 06:48:35;;;;;;;43.55;22.30;;;0.50;99.90;;;;;;5063699;28;20488;-73
2022/12/04 06:51:10;;;;;;;40.70;21.48;;;0.50;99.90;;;;;;5049563;28;20565;-73
2022/12/04 06:53:36;;;;;;;37.55;19.95;;;0.60;99.90;;;;;;5053565;28;20040;-74
2022/12/04 06:56:05;;;;;;;38.15;20.42;;;0.60;99.90;;;;;;5061220;28;20041;-74
2022/12/04 06:58:31;;;;;;;36.67;19.77;;;0.60;99.90;;;;;;5068785;28;20120;-74
2022/12/04 07:00:58;;;;;;;33.03;18.55;;;0.60;99.90;;;;;;5038320;28;20072;-73
2022/12/04 07:03:24;;;;;;;33.35;18.05;;;0.60;99.90;;;;;;5062202;28;20082;-75
2022/12/04 07:05:50;;;;;;;35.03;18.40;;;0.60;99.90;;;;;;5058508;28;20048;-74
2022/12/04 07:08:16;;;;;;;31.40;17.05;;;0.60;99.90;;;;;;5041629;28;20040;-75
2022/12/04 07:10:42;;;;;;;;;;;0.60;99.90;;;;;;5062962;28;20558;-74
2022/12/04 07:13:08;;;;;;;37.95;20.35;;;0.60;99.90;;;;;;5042245;28;19925;-74
2022/12/04 07:15:35;;;;;;;37.30;20.02;;;0.60;99.90;;;;;;5052187;28;20869;-74
2022/12/04 07:18:02;;;;;;;39.28;20.67;;;0.60;99.90;;;;;;5052766;28;20139;-76
2022/12/04 07:20:27;;;;;;;29.98;16.95;;;0.60;99.90;;;;;;5054916;28;20033;-76
2022/12/04 07:22:53;;;;;;;29.70;16.58;;;0.60;99.90;;;;;;5065891;28;20476;-75
2022/12/04 07:25:19;;;;;;;37.23;20.30;;;0.70;99.90;;;;;;5065437;28;20049;-74
2022/12/04 07:27:45;;;;;;;36.53;19.02;;;0.70;99.90;;;;;;5036188;28;20084;-75
2022/12/04 07:30:11;;;;;;;30.65;17.02;;;0.70;99.90;;;;;;5055724;28;20513;-75
2022/12/04 07:32:37;;;;;;;32.63;17.20;;;0.70;99.90;;;;;;5067808;28;20460;-75
2022/12/04 07:35:04;;;;;;;37.50;20.05;;;0.70;99.90;;;;;;5033111;28;20132;-75
2022/12/04 07:37:30;;;;;;;34.00;18.83;;;0.70;99.90;;;;;;5053034;28;20086;-76
2022/12/04 07:39:56;;;;;;;26.75;15.10;;;0.80;99.90;;;;;;5054111;28;20040;-75
2022/12/04 07:42:22;;;;;;;32.75;18.65;;;0.80;99.90;;;;;;5064411;28;20040;-75
2022/12/04 07:44:48;;;;;;;31.50;18.00;;;0.70;99.90;;;;;;5072817;28;20588;-74
2022/12/04 07:47:14;;;;;;;35.72;18.35;;;0.70;99.90;;;;;;5062476;28;20088;-75
2022/12/04 07:49:40;;;;;;;38.30;19.70;;;0.80;99.90;;;;;;5036747;28;20071;-74
2022/12/04 07:52:05;;;;;;;25.17;13.30;;;0.80;99.90;;;;;;5042359;28;20477;-75
2022/12/04 07:54:31;;;;;;;31.60;17.33;;;0.80;99.90;;;;;;5036169;28;20049;-75
2022/12/04 07:56:57;;;;;;;35.58;19.30;;;0.80;99.90;;;;;;5052309;28;20316;-74
2022/12/04 07:59:23;;;;;;;30.38;17.15;;;0.90;99.90;;;;;;5066735;28;20036;-75
2022/12/04 08:01:48;;;;;;;28.90;16.23;;;0.90;99.90;;;;;;5056204;28;20147;-74
2022/12/04 08:04:14;;;;;;;28.13;16.00;;;0.80;99.90;;;;;;5058091;28;20047;-76
2022/12/04 08:06:40;;;;;;;32.53;17.55;;;0.90;99.90;;;;;;5039616;28;20044;-75
2022/12/04 08:09:07;;;;;;;31.30;17.42;;;0.90;99.90;;;;;;5041831;28;20094;-75
2022/12/04 08:11:32;;;;;;;;;;;0.90;99.90;;;;;;5066580;28;20036;-75
2022/12/04 08:14:00;;;;;;;31.48;18.45;;;0.90;99.90;;;;;;5071774;28;20428;-75
2022/12/04 08:16:28;;;;;;;35.40;18.23;;;0.90;99.90;;;;;;5058805;28;20162;-75
2022/12/04 08:18:54;;;;;;;34.10;18.38;;;0.90;99.90;;;;;;5059443;28;20474;-71
2022/12/04 08:21:22;;;;;;;34.08;19.23;;;0.90;99.90;;;;;;5060766;28;20032;-71
2022/12/04 08:23:50;;;;;;;38.25;20.88;;;0.90;99.90;;;;;;5055598;28;20101;-71
2022/12/04 08:26:16;;;;;;;32.95;18.48;;;0.90;99.90;;;;;;5063991;28;20044;-71
2022/12/04 08:28:42;;;;;;;35.58;19.98;;;1.00;99.90;;;;;;5059135;28;20415;-71
2022/12/04 08:31:15;;;;;;;38.25;21.42;;;1.00;99.90;;;;;;5045647;28;20123;-71
2022/12/04 08:33:42;;;;;;;33.45;19.42;;;1.00;99.90;;;;;;5055973;28;20787;-71
2022/12/04 08:36:10;;;;;;;32.80;18.90;;;1.00;99.90;;;;;;5055530;28;20049;-71
2022/12/04 08:38:36;;;;;;;37.08;20.70;;;1.10;99.90;;;;;;5037925;28;20462;-71
2022/12/04 08:41:04;;;;;;;36.28;20.92;;;1.10;99.90;;;;;;5039952;28;20851;-72
2022/12/04 08:43:30;;;;;;;36.00;21.55;;;1.10;99.90;;;;;;5057649;28;20041;-71
2022/12/04 08:45:57;;;;;;;34.50;19.65;;;1.10;99.90;;;;;;5066207;28;20045;-71
2022/12/04 08:48:23;;;;;;;38.95;21.63;;;1.10;99.90;;;;;;5046028;28;20060;-73
2022/12/04 08:50:49;;;;;;;35.33;19.88;;;1.20;99.90;;;;;;5049886;28;20040;-71
2022/12/04 08:53:15;;;;;;;35.08;19.52;;;1.20;99.90;;;;;;5070598;28;20048;-71
2022/12/04 08:55:40;;;;;;;23.92;13.82;;;1.20;99.90;;;;;;5053741;28;20046;-71
2022/12/04 08:58:06;;;;;;;30.40;17.60;;;1.20;99.90;;;;;;5020619;28;20151;-71
2022/12/04 09:00:32;;;;;;;28.23;16.30;;;1.30;99.90;;;;;;5051738;28;20037;-72
2022/12/04 09:03:00;;;;;;;30.17;17.77;;;1.30;99.90;;;;;;5058798;28;20047;-70
2022/12/04 09:05:25;;;;;;;33.72;19.52;;;1.30;99.90;;;;;;5052656;28;20044;-72
2022/12/04 09:07:51;;;;;;;37.30;21.50;;;1.40;99.90;;;;;;5061594;28;20532;-70
2022/12/04 09:10:17;;;;;;;33.33;19.37;;;1.40;99.90;;;;;;5052814;28;20743;-70
2022/12/04 09:12:42;;;;;;;32.57;19.23;;;1.40;99.90;;;;;;5070690;28;20290;-71
2022/12/04 09:15:09;;;;;;;33.60;19.65;;;1.50;99.90;;;;;;5062069;28;20309;-74
2022/12/04 09:17:37;;;;;;;31.35;17.60;;;1.50;99.90;;;;;;5042686;28;20087;-74
2022/12/04 09:20:04;;;;;;;28.23;16.75;;;1.50;99.90;;;;;;5062209;28;20040;-74
2022/12/04 09:22:30;;;;;;;33.75;18.92;;;1.60;99.90;;;;;;5057116;28;20421;-71
2022/12/04 09:24:56;;;;;;;28.92;17.00;;;1.60;99.90;;;;;;5044781;28;20179;-75
2022/12/04 09:27:22;;;;;;;26.85;16.77;;;1.60;99.90;;;;;;5062156;28;20561;-75
2022/12/04 09:29:47;;;;;;;29.67;18.35;;;1.60;99.90;;;;;;5064835;28;20476;-75
2022/12/04 09:32:13;;;;;;;34.25;20.25;;;1.70;99.90;;;;;;5051930;28;20194;-75
2022/12/04 09:34:39;;;;;;;30.20;17.75;;;1.70;99.90;;;;;;5050525;28;20056;-75
2022/12/04 09:37:04;;;;;;;27.42;16.77;;;1.80;99.90;;;;;;5051745;28;20057;-75
2022/12/04 09:39:30;;;;;;;29.77;16.67;;;1.80;99.90;;;;;;5043493;28;20568;-74
2022/12/04 09:42:08;;;;;;;31.67;18.30;;;1.80;99.90;;;;;;5068872;28;20040;-75
2022/12/04 09:44:50;;;;;;;32.65;19.48;;;1.90;99.90;;;;;;5071311;28;20040;-75
2022/12/04 09:47:46;;;;;;;30.58;17.75;;;1.90;99.90;;;;;;5071237;28;20052;-75
2022/12/04 09:50:31;;;;;;;28.52;17.17;;;1.90;99.90;;;;;;5049958;28;20061;-75
2022/12/04 09:53:10;;;;;;;29.35;18.25;;;2.00;99.90;;;;;;5050575;28;20052;-75
2022/12/04 09:55:39;;;;;;;31.30;17.90;;;2.00;99.90;;;;;;5050335;28;20401;-75
2022/12/04 09:58:12;;;;;;;29.48;17.48;;;2.10;99.90;;;;;;5049212;28;20448;-75
2022/12/04 10:00:41;;;;;;;27.75;17.10;;;2.10;99.90;;;;;;5050719;28;20053;-75
2022/12/04 10:03:16;;;;;;;26.83;15.85;;;2.20;99.90;;;;;;5063250;28;20040;-75
2022/12/04 10:05:48;;;;;;;25.38;15.80;;;2.20;99.90;;;;;;5070054;28;20058;-76
2022/12/04 10:08:40;;;;;;;27.52;16.40;;;2.20;99.90;;;;;;5050845;28;20076;-75
2022/12/04 10:11:24;;;;;;;24.63;14.82;;;2.30;99.90;;;;;;5050050;28;20418;-75
2022/12/04 10:14:01;;;;;;;29.17;18.00;;;2.30;99.90;;;;;;5050544;28;20496;-75
2022/12/04 10:16:42;;;;;;;27.10;16.40;;;2.30;99.90;;;;;;5049811;28;20041;-75
2022/12/04 10:19:17;;;;;;;29.70;17.05;;;2.40;99.90;;;;;;5050753;28;20047;-75
2022/12/04 10:22:04;;;;;;;27.15;16.42;;;2.40;99.90;;;;;;5049828;28;20172;-75
2022/12/04 10:24:55;;;;;;;22.73;14.90;;;2.40;99.90;;;;;;5050797;28;20132;-75
2022/12/04 10:27:32;;;;;;;24.65;14.95;;;2.40;99.90;;;;;;5051449;28;20044;-75
2022/12/04 10:30:01;;;;;;;;;;;2.40;99.90;;;;;;5067296;28;20045;-75
2022/12/04 10:32:31;;;;;;;28.48;16.75;;;2.40;99.90;;;;;;5070674;28;19920;-74
2022/12/04 10:35:20;;;;;;;26.83;15.25;;;2.40;99.90;;;;;;5072353;28;20048;-75
2022/12/04 10:37:50;;;;;;;27.83;16.73;;;2.50;99.90;;;;;;5074669;28;20048;-75
2022/12/04 10:40:26;;;;;;;28.85;17.05;;;2.50;99.90;;;;;;5057963;28;20044;-75
2022/12/04 10:43:11;;;;;;;31.23;17.25;;;2.50;99.90;;;;;;5054389;28;20083;-75
2022/12/04 10:45:36;;;;;;;22.35;13.93;;;2.50;99.90;;;;;;5037105;28;20044;-74
2022/12/04 10:48:03;;;;;;;24.08;14.48;;;2.50;99.90;;;;;;5054222;28;20122;-75
2022/12/04 10:50:29;;;;;;;21.45;13.70;;;2.50;99.90;;;;;;5054301;28;20488;-75
2022/12/04 10:52:55;;;;;;;25.30;14.43;;;2.60;99.90;;;;;;5053968;28;20090;-75
2022/12/04 10:55:32;;;;;;;;;;;2.60;99.90;;;;;;5054752;28;20052;-75
2022/12/04 10:57:57;;;;;;;21.08;12.48;;;2.60;99.90;;;;;;5053951;28;19921;-75
2022/12/04 11:00:34;;;;;;;21.08;12.93;;;2.70;99.90;;;;;;5053890;28;20053;-75
2022/12/04 11:03:18;;;;;;;19.58;12.02;;;2.70;99.90;;;;;;5054724;28;20053;-75
2022/12/04 11:05:54;;;;;;;20.38;12.75;;;2.70;99.90;;;;;;5053940;28;20519;-75
2022/12/04 11:08:27;;;;;;;18.23;11.57;;;2.70;99.90;;;;;;5054808;28;20045;-75
2022/12/04 11:11:12;;;;;;;21.75;13.10;;;2.70;99.90;;;;;;5055113;28;20041;-75
2022/12/04 11:13:39;;;;;;;19.42;12.02;;;2.70;99.90;;;;;;5054234;28;20059;-74
2022/12/04 11:16:06;;;;;;;19.80;11.63;;;2.70;99.90;;;;;;5054000;28;20089;-74
2022/12/04 11:18:53;;;;;;;19.00;11.60;;;2.70;99.90;;;;;;5067865;28;20420;-74
2022/12/04 11:21:29;;;;;;;21.02;13.13;;;2.70;99.90;;;;;;5052834;28;20124;-75
2022/12/04 11:23:55;;;;;;;18.58;11.90;;;2.80;99.90;;;;;;5053266;28;20248;-75
2022/12/04 11:26:35;;;;;;;18.52;11.38;;;2.80;99.90;;;;;;5069290;28;20047;-77
2022/12/04 11:29:02;;;;;;;19.95;11.88;;;2.70;99.90;;;;;;5071828;28;20131;-75
2022/12/04 11:31:28;;;;;;;19.83;11.88;;;2.70;99.90;;;;;;5073417;28;20052;-75
2022/12/04 11:33:58;;;;;;;17.58;10.82;;;2.80;99.90;;;;;;5057105;28;20097;-75
2022/12/04 11:36:29;;;;;;;15.20;10.48;;;2.70;99.90;;;;;;5036977;28;20056;-75
2022/12/04 11:39:31;;;;;;;18.60;11.45;;;2.80;99.90;;;;;;5054973;28;20072;-74
2022/12/04 11:42:13;;;;;;;17.75;10.90;;;2.70;99.90;;;;;;5053100;28;20037;-75
2022/12/04 11:44:55;;;;;;;17.23;11.05;;;2.70;99.90;;;;;;5053453;28;20041;-75
2022/12/04 11:47:24;;;;;;;15.93;9.70;;;2.70;99.90;;;;;;5052601;28;20044;-74
2022/12/04 11:50:25;;;;;;;17.23;10.52;;;2.70;99.90;;;;;;5052827;28;20061;-74
2022/12/04 11:53:10;;;;;;;16.30;9.57;;;2.70;99.90;;;;;;5042742;28;20563;-75
2022/12/04 11:55:39;;;;;;;18.00;11.68;;;2.70;99.90;;;;;;5051719;28;20051;-74
2022/12/04 11:58:11;;;;;;;17.90;11.18;;;2.70;99.90;;;;;;5037891;28;20380;-75
2022/12/04 12:00:47;;;;;;;19.13;12.15;;;2.70;99.90;;;;;;5036463;28;20108;-75
2022/12/04 12:03:25;;;;;;;18.07;11.07;;;2.70;99.90;;;;;;5045529;28;20063;-75
2022/12/04 12:05:56;;;;;;;17.85;11.30;;;2.70;99.90;;;;;;5072600;28;20044;-75
2022/12/04 12:08:32;;;;;;;17.73;10.82;;;2.70;99.90;;;;;;5056552;28;20124;-75
2022/12/04 12:11:19;;;;;;;15.57;9.85;;;2.70;99.90;;;;;;5073122;28;20487;-75
2022/12/04 12:14:03;;;;;;;14.57;9.48;;;2.70;99.90;;;;;;5072767;28;20040;-75
2022/12/04 12:16:56;;;;;;;16.63;9.95;;;2.80;99.90;;;;;;5055795;28;20089;-74
2022/12/04 12:20:02;;;;;;;19.02;11.00;;;2.80;99.90;;;;;;5053898;28;20040;-74
2022/12/04 12:22:43;;;;;;;16.42;10.75;;;2.80;99.90;;;;;;5045800;28;20053;-75
2022/12/04 12:25:33;;;;;;;17.45;10.00;;;2.80;99.90;;;;;;5036149;28;20461;-75
2022/12/04 12:28:37;;;;;;;18.00;11.13;;;2.80;99.90;;;;;;5052598;28;20467;-75
2022/12/04 12:31:30;;;;;;;15.93;9.90;;;2.80;99.90;;;;;;5052074;28;20154;-75
2022/12/04 12:34:21;;;;;;;16.33;10.35;;;2.80;99.90;;;;;;5052179;28;20538;-75
2022/12/04 12:36:50;;;;;;;18.77;11.93;;;2.80;99.90;;;;;;5064138;28;20442;-75
2022/12/04 12:39:29;;;;;;;17.63;11.30;;;2.80;99.90;;;;;;5052412;28;20450;-74
2022/12/04 12:41:59;;;;;;;17.58;11.27;;;2.80;99.90;;;;;;5051983;28;20548;-75
2022/12/04 12:44:38;;;;;;;18.17;10.98;;;2.80;99.90;;;;;;5035673;28;20413;-75
2022/12/04 12:47:14;;;;;;;18.00;10.90;;;2.80;99.90;;;;;;5051779;28;20094;-75
2022/12/04 12:49:45;;;;;;;16.48;10.75;;;2.80;99.90;;;;;;5034341;28;20107;-75
2022/12/04 12:52:31;;;;;;;19.05;12.13;;;2.80;99.90;;;;;;5053987;28;20052;-74
2022/12/04 12:55:12;;;;;;;16.63;10.40;;;2.80;99.90;;;;;;5070577;28;20496;-75
2022/12/04 12:57:41;;;;;;;17.00;10.68;;;2.80;99.90;;;;;;5055719;28;20480;-75
2022/12/04 13:00:18;;;;;;;16.55;10.57;;;2.80;99.90;;;;;;5063831;28;20045;-75
2022/12/04 13:03:11;;;;;;;20.42;12.20;;;2.80;99.90;;;;;;5053176;28;20037;-74
2022/12/04 13:05:43;;;;;;;17.48;11.25;;;2.90;99.90;;;;;;5035078;28;20037;-75
2022/12/04 13:08:24;;;;;;;20.40;12.40;;;2.90;99.90;;;;;;5053870;28;20542;-75
2022/12/04 13:11:23;;;;;;;18.77;11.98;;;2.90;99.90;;;;;;5051263;28;20110;-74
2022/12/04 13:13:51;;;;;;;;;;;2.90;99.90;;;;;;5052249;28;20112;-74